sensor_id;sensor_type;location;lat;lon;timestamp;P1;durP1;ratioP1;P2;durP2;ratioP2
42912;SDS011;50720;54.324;18.558;2023-09-30T00:02:00;16.00;;;10.43;;
42912;SDS011;50720;54.324;18.558;2023-09-30T00:04:49;13.35;;;9.73;;
42912;SDS011;50720;54.324;18.558;2023-09-30T00:07:36;18.20;;;10.98;;
42912;SDS011;50720;54.324;18.558;2023-09-30T00:10:23;13.60;;;10.25;;
42912;SDS011;50720;54.324;18.558;2023-09-30T00:13:10;17.33;;;10.43;;
42912;SDS011;50720;54.324;18.558;2023-09-30T00:15:58;13.88;;;11.30;;
42912;SDS011;50720;54.324;18.558;2023-09-30T00:18:45;14.40;;;10.80;;
42912;SDS011;50720;54.324;18.558;2023-09-30T00:21:34;12.45;;;10.18;;
42912;SDS011;50720;54.324;18.558;2023-09-30T00:24:21;14.13;;;10.32;;
42912;SDS011;50720;54.324;18.558;2023-09-30T00:27:08;15.38;;;10.32;;
42912;SDS011;50720;54.324;18.558;2023-09-30T00:29:55;11.85;;;10.40;;
42912;SDS011;50720;54.324;18.558;2023-09-30T00:32:42;11.35;;;10.13;;
42912;SDS011;50720;54.324;18.558;2023-09-30T00:35:30;13.13;;;10.13;;
42912;SDS011;50720;54.324;18.558;2023-09-30T00:38:20;12.60;;;10.23;;
42912;SDS011;50720;54.324;18.558;2023-09-30T00:41:08;15.93;;;10.43;;
42912;SDS011;50720;54.324;18.558;2023-09-30T00:43:55;15.13;;;10.10;;
42912;SDS011;50720;54.324;18.558;2023-09-30T00:46:42;15.25;;;11.43;;
42912;SDS011;50720;54.324;18.558;2023-09-30T00:49:29;15.48;;;10.02;;
42912;SDS011;50720;54.324;18.558;2023-09-30T00:52:16;12.38;;;9.27;;
42912;SDS011;50720;54.324;18.558;2023-09-30T00:55:06;11.38;;;9.43;;
42912;SDS011;50720;54.324;18.558;2023-09-30T01:00:41;10.75;;;8.93;;
42912;SDS011;50720;54.324;18.558;2023-09-30T01:03:29;11.60;;;9.02;;
42912;SDS011;50720;54.324;18.558;2023-09-30T01:06:17;12.35;;;9.82;;
42912;SDS011;50720;54.324;18.558;2023-09-30T01:09:03;14.30;;;9.85;;
42912;SDS011;50720;54.324;18.558;2023-09-30T01:11:52;14.23;;;9.27;;
42912;SDS011;50720;54.324;18.558;2023-09-30T01:14:39;15.02;;;8.35;;
42912;SDS011;50720;54.324;18.558;2023-09-30T01:17:28;14.88;;;9.23;;
42912;SDS011;50720;54.324;18.558;2023-09-30T01:20:15;13.43;;;9.70;;
42912;SDS011;50720;54.324;18.558;2023-09-30T01:23:08;10.57;;;9.25;;
42912;SDS011;50720;54.324;18.558;2023-09-30T01:25:57;10.68;;;9.43;;
42912;SDS011;50720;54.324;18.558;2023-09-30T01:28:48;12.68;;;8.73;;
42912;SDS011;50720;54.324;18.558;2023-09-30T01:31:36;17.55;;;9.50;;
42912;SDS011;50720;54.324;18.558;2023-09-30T01:34:24;14.32;;;9.30;;
42912;SDS011;50720;54.324;18.558;2023-09-30T01:37:11;14.00;;;9.15;;
42912;SDS011;50720;54.324;18.558;2023-09-30T01:40:00;13.20;;;9.75;;
42912;SDS011;50720;54.324;18.558;2023-09-30T01:42:49;12.73;;;9.60;;
42912;SDS011;50720;54.324;18.558;2023-09-30T01:45:36;12.20;;;9.20;;
42912;SDS011;50720;54.324;18.558;2023-09-30T01:48:23;13.40;;;9.48;;
42912;SDS011;50720;54.324;18.558;2023-09-30T01:51:10;12.20;;;8.55;;
42912;SDS011;50720;54.324;18.558;2023-09-30T01:53:57;13.40;;;9.85;;
42912;SDS011;50720;54.324;18.558;2023-09-30T01:56:46;15.50;;;9.88;;
42912;SDS011;50720;54.324;18.558;2023-09-30T01:59:34;12.00;;;9.52;;
42912;SDS011;50720;54.324;18.558;2023-09-30T02:02:21;12.98;;;9.65;;
42912;SDS011;50720;54.324;18.558;2023-09-30T02:05:08;17.13;;;10.95;;
42912;SDS011;50720;54.324;18.558;2023-09-30T02:07:55;14.93;;;11.00;;
42912;SDS011;50720;54.324;18.558;2023-09-30T02:10:42;20.23;;;10.90;;
42912;SDS011;50720;54.324;18.558;2023-09-30T02:13:32;16.35;;;12.13;;
42912;SDS011;50720;54.324;18.558;2023-09-30T02:16:20;19.17;;;11.88;;
42912;SDS011;50720;54.324;18.558;2023-09-30T02:19:07;16.00;;;12.68;;
42912;SDS011;50720;54.324;18.558;2023-09-30T02:21:55;13.82;;;11.82;;
42912;SDS011;50720;54.324;18.558;2023-09-30T02:24:42;19.20;;;11.82;;
42912;SDS011;50720;54.324;18.558;2023-09-30T02:27:30;16.75;;;11.38;;
42912;SDS011;50720;54.324;18.558;2023-09-30T02:30:19;16.48;;;12.40;;
42912;SDS011;50720;54.324;18.558;2023-09-30T02:33:06;16.70;;;13.77;;
42912;SDS011;50720;54.324;18.558;2023-09-30T02:35:53;16.30;;;13.48;;
42912;SDS011;50720;54.324;18.558;2023-09-30T02:38:40;19.83;;;14.32;;
42912;SDS011;50720;54.324;18.558;2023-09-30T02:41:28;17.98;;;13.65;;
42912;SDS011;50720;54.324;18.558;2023-09-30T02:44:14;16.55;;;13.88;;
42912;SDS011;50720;54.324;18.558;2023-09-30T02:47:03;16.38;;;12.30;;
42912;SDS011;50720;54.324;18.558;2023-09-30T02:49:50;21.17;;;13.93;;
42912;SDS011;50720;54.324;18.558;2023-09-30T02:52:38;16.23;;;14.13;;
42912;SDS011;50720;54.324;18.558;2023-09-30T02:55:25;19.75;;;14.68;;
42912;SDS011;50720;54.324;18.558;2023-09-30T02:58:12;15.93;;;13.55;;
42912;SDS011;50720;54.324;18.558;2023-09-30T03:00:59;16.92;;;13.55;;
42912;SDS011;50720;54.324;18.558;2023-09-30T03:03:48;21.10;;;13.93;;
42912;SDS011;50720;54.324;18.558;2023-09-30T03:06:35;15.65;;;12.05;;
42912;SDS011;50720;54.324;18.558;2023-09-30T03:09:23;16.25;;;12.63;;
42912;SDS011;50720;54.324;18.558;2023-09-30T03:12:11;21.25;;;13.27;;
42912;SDS011;50720;54.324;18.558;2023-09-30T03:14:58;15.63;;;12.65;;
42912;SDS011;50720;54.324;18.558;2023-09-30T03:17:48;16.53;;;13.30;;
42912;SDS011;50720;54.324;18.558;2023-09-30T03:20:37;15.45;;;10.73;;
42912;SDS011;50720;54.324;18.558;2023-09-30T03:23:24;15.45;;;11.05;;
42912;SDS011;50720;54.324;18.558;2023-09-30T03:26:15;16.83;;;11.30;;
42912;SDS011;50720;54.324;18.558;2023-09-30T03:29:02;13.63;;;10.25;;
42912;SDS011;50720;54.324;18.558;2023-09-30T03:31:50;18.27;;;10.95;;
42912;SDS011;50720;54.324;18.558;2023-09-30T03:34:37;18.98;;;11.25;;
42912;SDS011;50720;54.324;18.558;2023-09-30T03:37:30;13.32;;;10.70;;
42912;SDS011;50720;54.324;18.558;2023-09-30T03:40:20;17.08;;;10.02;;
42912;SDS011;50720;54.324;18.558;2023-09-30T03:43:13;17.00;;;10.43;;
42912;SDS011;50720;54.324;18.558;2023-09-30T03:46:00;7.72;;;5.57;;
42912;SDS011;50720;54.324;18.558;2023-09-30T03:48:47;5.20;;;3.80;;
42912;SDS011;50720;54.324;18.558;2023-09-30T03:51:34;6.93;;;3.72;;
42912;SDS011;50720;54.324;18.558;2023-09-30T03:54:23;12.10;;;3.70;;
42912;SDS011;50720;54.324;18.558;2023-09-30T03:57:11;7.78;;;2.45;;
42912;SDS011;50720;54.324;18.558;2023-09-30T04:00:00;4.55;;;2.45;;
42912;SDS011;50720;54.324;18.558;2023-09-30T04:02:50;4.32;;;1.70;;
42912;SDS011;50720;54.324;18.558;2023-09-30T04:05:42;6.88;;;2.45;;
42912;SDS011;50720;54.324;18.558;2023-09-30T04:08:29;7.15;;;2.28;;
42912;SDS011;50720;54.324;18.558;2023-09-30T04:11:19;7.68;;;1.98;;
42912;SDS011;50720;54.324;18.558;2023-09-30T04:14:06;6.05;;;1.80;;
42912;SDS011;50720;54.324;18.558;2023-09-30T04:16:54;3.65;;;1.08;;
42912;SDS011;50720;54.324;18.558;2023-09-30T04:19:42;3.03;;;1.05;;
42912;SDS011;50720;54.324;18.558;2023-09-30T04:22:30;4.07;;;1.20;;
42912;SDS011;50720;54.324;18.558;2023-09-30T04:25:17;3.55;;;0.98;;
42912;SDS011;50720;54.324;18.558;2023-09-30T04:28:07;3.58;;;1.17;;
42912;SDS011;50720;54.324;18.558;2023-09-30T04:30:53;2.92;;;0.98;;
42912;SDS011;50720;54.324;18.558;2023-09-30T04:33:41;6.65;;;1.73;;
42912;SDS011;50720;54.324;18.558;2023-09-30T04:36:27;5.80;;;1.35;;
42912;SDS011;50720;54.324;18.558;2023-09-30T04:39:15;8.02;;;1.88;;
42912;SDS011;50720;54.324;18.558;2023-09-30T04:42:02;8.55;;;1.90;;
42912;SDS011;50720;54.324;18.558;2023-09-30T04:44:51;12.18;;;2.28;;
42912;SDS011;50720;54.324;18.558;2023-09-30T04:47:38;8.43;;;2.03;;
42912;SDS011;50720;54.324;18.558;2023-09-30T04:50:26;8.30;;;2.65;;
42912;SDS011;50720;54.324;18.558;2023-09-30T04:53:13;7.45;;;1.85;;
42912;SDS011;50720;54.324;18.558;2023-09-30T04:56:02;10.50;;;2.67;;
42912;SDS011;50720;54.324;18.558;2023-09-30T04:58:49;8.45;;;2.90;;
42912;SDS011;50720;54.324;18.558;2023-09-30T05:01:38;14.38;;;2.60;;
42912;SDS011;50720;54.324;18.558;2023-09-30T05:04:25;12.50;;;3.55;;
42912;SDS011;50720;54.324;18.558;2023-09-30T05:07:12;8.30;;;2.90;;
42912;SDS011;50720;54.324;18.558;2023-09-30T05:09:59;10.32;;;2.63;;
42912;SDS011;50720;54.324;18.558;2023-09-30T05:12:49;17.30;;;2.88;;
42912;SDS011;50720;54.324;18.558;2023-09-30T05:15:38;14.20;;;3.08;;
42912;SDS011;50720;54.324;18.558;2023-09-30T05:18:27;12.45;;;3.78;;
42912;SDS011;50720;54.324;18.558;2023-09-30T05:21:14;11.48;;;3.70;;
42912;SDS011;50720;54.324;18.558;2023-09-30T05:24:02;10.32;;;3.10;;
42912;SDS011;50720;54.324;18.558;2023-09-30T05:26:49;14.90;;;3.10;;
42912;SDS011;50720;54.324;18.558;2023-09-30T05:29:37;13.00;;;3.60;;
42912;SDS011;50720;54.324;18.558;2023-09-30T05:32:24;9.15;;;2.67;;
42912;SDS011;50720;54.324;18.558;2023-09-30T05:35:13;16.15;;;3.13;;
42912;SDS011;50720;54.324;18.558;2023-09-30T05:38:01;14.60;;;3.90;;
42912;SDS011;50720;54.324;18.558;2023-09-30T05:40:51;13.07;;;4.28;;
42912;SDS011;50720;54.324;18.558;2023-09-30T05:43:39;8.57;;;2.55;;
42912;SDS011;50720;54.324;18.558;2023-09-30T05:46:28;11.02;;;2.72;;
42912;SDS011;50720;54.324;18.558;2023-09-30T05:49:15;13.38;;;3.53;;
42912;SDS011;50720;54.324;18.558;2023-09-30T05:52:05;5.45;;;3.15;;
42912;SDS011;50720;54.324;18.558;2023-09-30T05:54:53;10.20;;;2.72;;
42912;SDS011;50720;54.324;18.558;2023-09-30T05:57:40;12.50;;;3.15;;
42912;SDS011;50720;54.324;18.558;2023-09-30T06:00:28;13.27;;;3.25;;
42912;SDS011;50720;54.324;18.558;2023-09-30T06:03:16;13.70;;;3.63;;
42912;SDS011;50720;54.324;18.558;2023-09-30T06:06:02;11.98;;;3.20;;
42912;SDS011;50720;54.324;18.558;2023-09-30T06:08:58;15.93;;;3.58;;
42912;SDS011;50720;54.324;18.558;2023-09-30T06:11:45;15.30;;;3.92;;
42912;SDS011;50720;54.324;18.558;2023-09-30T06:14:33;12.40;;;3.45;;
42912;SDS011;50720;54.324;18.558;2023-09-30T06:17:20;14.85;;;3.30;;
42912;SDS011;50720;54.324;18.558;2023-09-30T06:20:07;9.95;;;3.22;;
42912;SDS011;50720;54.324;18.558;2023-09-30T06:23:00;11.63;;;2.83;;
42912;SDS011;50720;54.324;18.558;2023-09-30T06:25:49;10.95;;;3.30;;
42912;SDS011;50720;54.324;18.558;2023-09-30T06:28:37;8.02;;;3.30;;
42912;SDS011;50720;54.324;18.558;2023-09-30T06:31:25;9.27;;;3.20;;
42912;SDS011;50720;54.324;18.558;2023-09-30T06:34:13;11.85;;;3.35;;
42912;SDS011;50720;54.324;18.558;2023-09-30T06:37:01;17.83;;;3.15;;
42912;SDS011;50720;54.324;18.558;2023-09-30T06:39:48;8.45;;;2.97;;
42912;SDS011;50720;54.324;18.558;2023-09-30T06:42:37;9.80;;;3.25;;
42912;SDS011;50720;54.324;18.558;2023-09-30T06:45:24;16.52;;;2.80;;
42912;SDS011;50720;54.324;18.558;2023-09-30T06:48:12;11.23;;;2.50;;
42912;SDS011;50720;54.324;18.558;2023-09-30T06:51:00;14.52;;;3.13;;
42912;SDS011;50720;54.324;18.558;2023-09-30T06:53:47;8.70;;;3.15;;
42912;SDS011;50720;54.324;18.558;2023-09-30T06:56:34;7.53;;;2.60;;
42912;SDS011;50720;54.324;18.558;2023-09-30T06:59:23;7.32;;;2.20;;
42912;SDS011;50720;54.324;18.558;2023-09-30T07:02:10;9.77;;;3.05;;
42912;SDS011;50720;54.324;18.558;2023-09-30T07:04:57;13.27;;;3.20;;
42912;SDS011;50720;54.324;18.558;2023-09-30T07:07:44;14.85;;;2.97;;
42912;SDS011;50720;54.324;18.558;2023-09-30T07:10:31;9.75;;;2.63;;
42912;SDS011;50720;54.324;18.558;2023-09-30T07:13:18;13.57;;;3.95;;
42912;SDS011;50720;54.324;18.558;2023-09-30T07:16:07;7.95;;;2.97;;
42912;SDS011;50720;54.324;18.558;2023-09-30T07:18:54;15.68;;;2.97;;
42912;SDS011;50720;54.324;18.558;2023-09-30T07:21:42;12.13;;;3.20;;
42912;SDS011;50720;54.324;18.558;2023-09-30T07:24:31;14.55;;;2.83;;
42912;SDS011;50720;54.324;18.558;2023-09-30T07:27:18;11.20;;;3.10;;
42912;SDS011;50720;54.324;18.558;2023-09-30T07:30:06;11.55;;;2.63;;
42912;SDS011;50720;54.324;18.558;2023-09-30T07:32:56;9.82;;;2.58;;
42912;SDS011;50720;54.324;18.558;2023-09-30T07:35:42;12.65;;;3.35;;
42912;SDS011;50720;54.324;18.558;2023-09-30T07:38:31;10.27;;;3.22;;
42912;SDS011;50720;54.324;18.558;2023-09-30T07:41:18;11.60;;;2.47;;
42912;SDS011;50720;54.324;18.558;2023-09-30T07:44:05;7.97;;;2.42;;
42912;SDS011;50720;54.324;18.558;2023-09-30T07:46:53;10.77;;;2.72;;
42912;SDS011;50720;54.324;18.558;2023-09-30T07:49:42;8.38;;;2.92;;
42912;SDS011;50720;54.324;18.558;2023-09-30T07:52:29;7.00;;;2.55;;
42912;SDS011;50720;54.324;18.558;2023-09-30T07:55:16;12.68;;;3.70;;
42912;SDS011;50720;54.324;18.558;2023-09-30T07:58:04;12.27;;;3.10;;
42912;SDS011;50720;54.324;18.558;2023-09-30T08:00:53;9.90;;;3.45;;
42912;SDS011;50720;54.324;18.558;2023-09-30T08:03:39;14.77;;;2.75;;
42912;SDS011;50720;54.324;18.558;2023-09-30T08:06:28;8.25;;;2.80;;
42912;SDS011;50720;54.324;18.558;2023-09-30T08:09:15;6.88;;;2.25;;
42912;SDS011;50720;54.324;18.558;2023-09-30T08:12:03;17.05;;;3.22;;
42912;SDS011;50720;54.324;18.558;2023-09-30T08:14:50;13.90;;;2.50;;
42912;SDS011;50720;54.324;18.558;2023-09-30T08:17:38;13.50;;;3.85;;
42912;SDS011;50720;54.324;18.558;2023-09-30T08:20:24;9.32;;;4.10;;
42912;SDS011;50720;54.324;18.558;2023-09-30T08:23:14;10.98;;;2.50;;
42912;SDS011;50720;54.324;18.558;2023-09-30T08:26:00;8.65;;;2.05;;
42912;SDS011;50720;54.324;18.558;2023-09-30T08:28:49;12.73;;;2.75;;
42912;SDS011;50720;54.324;18.558;2023-09-30T08:31:36;12.75;;;3.25;;
42912;SDS011;50720;54.324;18.558;2023-09-30T08:34:23;6.30;;;1.88;;
42912;SDS011;50720;54.324;18.558;2023-09-30T08:37:10;9.73;;;2.25;;
42912;SDS011;50720;54.324;18.558;2023-09-30T08:39:59;5.22;;;2.00;;
42912;SDS011;50720;54.324;18.558;2023-09-30T08:42:45;9.63;;;2.28;;
42912;SDS011;50720;54.324;18.558;2023-09-30T08:45:37;9.98;;;2.10;;
42912;SDS011;50720;54.324;18.558;2023-09-30T08:48:28;8.90;;;2.03;;
42912;SDS011;50720;54.324;18.558;2023-09-30T08:51:18;8.57;;;3.08;;
42912;SDS011;50720;54.324;18.558;2023-09-30T08:54:05;7.00;;;2.13;;
42912;SDS011;50720;54.324;18.558;2023-09-30T08:56:54;5.72;;;1.90;;
42912;SDS011;50720;54.324;18.558;2023-09-30T08:59:41;9.63;;;2.85;;
42912;SDS011;50720;54.324;18.558;2023-09-30T09:02:40;8.75;;;1.90;;
42912;SDS011;50720;54.324;18.558;2023-09-30T09:05:43;13.90;;;2.15;;
42912;SDS011;50720;54.324;18.558;2023-09-30T09:08:30;7.10;;;2.05;;
42912;SDS011;50720;54.324;18.558;2023-09-30T09:11:17;9.95;;;1.92;;
42912;SDS011;50720;54.324;18.558;2023-09-30T09:14:06;10.73;;;2.80;;
42912;SDS011;50720;54.324;18.558;2023-09-30T09:16:54;10.68;;;2.53;;
42912;SDS011;50720;54.324;18.558;2023-09-30T09:19:41;5.32;;;2.20;;
42912;SDS011;50720;54.324;18.558;2023-09-30T09:22:37;13.50;;;1.83;;
42912;SDS011;50720;54.324;18.558;2023-09-30T09:25:25;13.43;;;3.25;;
42912;SDS011;50720;54.324;18.558;2023-09-30T09:28:12;6.65;;;1.67;;
42912;SDS011;50720;54.324;18.558;2023-09-30T09:31:03;9.15;;;1.85;;
42912;SDS011;50720;54.324;18.558;2023-09-30T09:34:13;7.90;;;2.40;;
42912;SDS011;50720;54.324;18.558;2023-09-30T09:37:00;6.82;;;1.88;;
42912;SDS011;50720;54.324;18.558;2023-09-30T09:39:59;6.05;;;1.92;;
42912;SDS011;50720;54.324;18.558;2023-09-30T09:42:48;11.10;;;2.28;;
42912;SDS011;50720;54.324;18.558;2023-09-30T09:45:39;8.68;;;1.80;;
42912;SDS011;50720;54.324;18.558;2023-09-30T09:48:27;7.00;;;1.42;;
42912;SDS011;50720;54.324;18.558;2023-09-30T09:51:14;8.13;;;2.40;;
42912;SDS011;50720;54.324;18.558;2023-09-30T09:54:03;5.15;;;1.42;;
42912;SDS011;50720;54.324;18.558;2023-09-30T09:56:51;8.75;;;2.15;;
42912;SDS011;50720;54.324;18.558;2023-09-30T09:59:42;6.20;;;1.95;;
42912;SDS011;50720;54.324;18.558;2023-09-30T10:02:31;9.65;;;2.17;;
42912;SDS011;50720;54.324;18.558;2023-09-30T10:05:21;6.93;;;2.70;;
42912;SDS011;50720;54.324;18.558;2023-09-30T10:08:08;8.63;;;2.10;;
42912;SDS011;50720;54.324;18.558;2023-09-30T10:11:02;5.70;;;1.60;;
42912;SDS011;50720;54.324;18.558;2023-09-30T10:13:49;5.60;;;1.92;;
42912;SDS011;50720;54.324;18.558;2023-09-30T10:16:47;11.35;;;1.90;;
42912;SDS011;50720;54.324;18.558;2023-09-30T10:19:35;7.13;;;2.00;;
42912;SDS011;50720;54.324;18.558;2023-09-30T10:22:44;8.40;;;1.80;;
42912;SDS011;50720;54.324;18.558;2023-09-30T10:25:35;11.93;;;2.33;;
42912;SDS011;50720;54.324;18.558;2023-09-30T10:28:33;9.25;;;2.05;;
42912;SDS011;50720;54.324;18.558;2023-09-30T10:31:22;11.35;;;2.55;;
42912;SDS011;50720;54.324;18.558;2023-09-30T10:34:19;10.35;;;2.55;;
42912;SDS011;50720;54.324;18.558;2023-09-30T10:40:10;8.32;;;2.13;;
42912;SDS011;50720;54.324;18.558;2023-09-30T10:43:23;12.13;;;2.40;;
42912;SDS011;50720;54.324;18.558;2023-09-30T10:46:32;10.25;;;3.92;;
42912;SDS011;50720;54.324;18.558;2023-09-30T10:49:32;8.30;;;2.15;;
42912;SDS011;50720;54.324;18.558;2023-09-30T10:52:21;5.70;;;2.03;;
42912;SDS011;50720;54.324;18.558;2023-09-30T10:55:09;12.68;;;2.42;;
42912;SDS011;50720;54.324;18.558;2023-09-30T10:57:58;9.00;;;2.83;;
42912;SDS011;50720;54.324;18.558;2023-09-30T11:00:51;9.27;;;2.45;;
42912;SDS011;50720;54.324;18.558;2023-09-30T11:03:39;13.00;;;2.83;;
42912;SDS011;50720;54.324;18.558;2023-09-30T11:06:26;13.20;;;2.50;;
42912;SDS011;50720;54.324;18.558;2023-09-30T11:09:15;11.93;;;2.83;;
42912;SDS011;50720;54.324;18.558;2023-09-30T11:12:04;6.78;;;2.20;;
42912;SDS011;50720;54.324;18.558;2023-09-30T11:15:01;8.30;;;2.50;;
42912;SDS011;50720;54.324;18.558;2023-09-30T11:17:49;8.73;;;2.13;;
42912;SDS011;50720;54.324;18.558;2023-09-30T11:20:36;6.60;;;1.60;;
42912;SDS011;50720;54.324;18.558;2023-09-30T11:23:23;15.68;;;2.80;;
42912;SDS011;50720;54.324;18.558;2023-09-30T11:26:11;8.40;;;2.72;;
42912;SDS011;50720;54.324;18.558;2023-09-30T11:29:06;7.80;;;2.42;;
42912;SDS011;50720;54.324;18.558;2023-09-30T11:31:56;8.65;;;2.30;;
42912;SDS011;50720;54.324;18.558;2023-09-30T11:34:44;11.55;;;2.65;;
42912;SDS011;50720;54.324;18.558;2023-09-30T11:37:31;11.50;;;2.15;;
42912;SDS011;50720;54.324;18.558;2023-09-30T11:40:19;7.63;;;2.30;;
42912;SDS011;50720;54.324;18.558;2023-09-30T11:43:08;6.38;;;1.90;;
42912;SDS011;50720;54.324;18.558;2023-09-30T11:46:07;8.38;;;2.15;;
42912;SDS011;50720;54.324;18.558;2023-09-30T11:48:56;13.45;;;2.85;;
42912;SDS011;50720;54.324;18.558;2023-09-30T11:51:44;10.88;;;3.17;;
42912;SDS011;50720;54.324;18.558;2023-09-30T11:54:32;7.20;;;2.35;;
42912;SDS011;50720;54.324;18.558;2023-09-30T11:57:21;6.13;;;1.70;;
42912;SDS011;50720;54.324;18.558;2023-09-30T12:00:09;10.00;;;3.20;;
42912;SDS011;50720;54.324;18.558;2023-09-30T12:03:00;7.40;;;2.17;;
42912;SDS011;50720;54.324;18.558;2023-09-30T12:05:48;9.15;;;2.17;;
42912;SDS011;50720;54.324;18.558;2023-09-30T12:08:35;7.32;;;2.35;;
42912;SDS011;50720;54.324;18.558;2023-09-30T12:11:23;7.65;;;2.35;;
42912;SDS011;50720;54.324;18.558;2023-09-30T12:14:10;10.57;;;2.17;;
42912;SDS011;50720;54.324;18.558;2023-09-30T12:16:58;8.63;;;2.63;;
42912;SDS011;50720;54.324;18.558;2023-09-30T12:19:46;9.57;;;2.78;;
42912;SDS011;50720;54.324;18.558;2023-09-30T12:22:34;8.20;;;2.33;;
42912;SDS011;50720;54.324;18.558;2023-09-30T12:25:22;7.45;;;2.03;;
42912;SDS011;50720;54.324;18.558;2023-09-30T12:28:10;11.65;;;2.55;;
42912;SDS011;50720;54.324;18.558;2023-09-30T12:30:59;10.23;;;2.15;;
42912;SDS011;50720;54.324;18.558;2023-09-30T12:33:47;9.00;;;2.63;;
42912;SDS011;50720;54.324;18.558;2023-09-30T12:36:38;9.35;;;2.67;;
42912;SDS011;50720;54.324;18.558;2023-09-30T12:39:25;7.65;;;2.35;;
42912;SDS011;50720;54.324;18.558;2023-09-30T12:42:14;9.98;;;2.55;;
42912;SDS011;50720;54.324;18.558;2023-09-30T12:45:02;6.00;;;1.80;;
42912;SDS011;50720;54.324;18.558;2023-09-30T12:47:50;14.05;;;1.90;;
42912;SDS011;50720;54.324;18.558;2023-09-30T12:50:39;8.88;;;1.88;;
42912;SDS011;50720;54.324;18.558;2023-09-30T12:53:27;12.05;;;2.78;;
42912;SDS011;50720;54.324;18.558;2023-09-30T12:56:14;6.45;;;1.95;;
42912;SDS011;50720;54.324;18.558;2023-09-30T12:59:01;11.70;;;2.85;;
42912;SDS011;50720;54.324;18.558;2023-09-30T13:01:49;8.85;;;2.65;;
42912;SDS011;50720;54.324;18.558;2023-09-30T13:04:35;7.45;;;2.28;;
42912;SDS011;50720;54.324;18.558;2023-09-30T13:07:27;7.10;;;2.42;;
42912;SDS011;50720;54.324;18.558;2023-09-30T13:10:16;9.93;;;3.15;;
42912;SDS011;50720;54.324;18.558;2023-09-30T13:13:03;9.45;;;2.45;;
42912;SDS011;50720;54.324;18.558;2023-09-30T13:15:50;10.05;;;1.98;;
42912;SDS011;50720;54.324;18.558;2023-09-30T13:18:37;9.30;;;2.60;;
42912;SDS011;50720;54.324;18.558;2023-09-30T13:21:24;8.10;;;2.90;;
42912;SDS011;50720;54.324;18.558;2023-09-30T13:24:11;10.38;;;1.77;;
42912;SDS011;50720;54.324;18.558;2023-09-30T13:27:00;6.80;;;2.22;;
42912;SDS011;50720;54.324;18.558;2023-09-30T13:29:47;12.75;;;2.72;;
42912;SDS011;50720;54.324;18.558;2023-09-30T13:32:34;10.45;;;2.50;;
42912;SDS011;50720;54.324;18.558;2023-09-30T13:35:21;10.55;;;2.92;;
42912;SDS011;50720;54.324;18.558;2023-09-30T13:38:09;5.90;;;2.03;;
42912;SDS011;50720;54.324;18.558;2023-09-30T13:40:56;7.70;;;2.33;;
42912;SDS011;50720;54.324;18.558;2023-09-30T13:43:47;8.60;;;1.70;;
42912;SDS011;50720;54.324;18.558;2023-09-30T13:46:34;6.53;;;1.63;;
42912;SDS011;50720;54.324;18.558;2023-09-30T13:49:21;6.38;;;1.67;;
42912;SDS011;50720;54.324;18.558;2023-09-30T13:52:08;7.20;;;2.38;;
42912;SDS011;50720;54.324;18.558;2023-09-30T13:54:55;10.00;;;2.60;;
42912;SDS011;50720;54.324;18.558;2023-09-30T13:57:42;10.40;;;2.40;;
42912;SDS011;50720;54.324;18.558;2023-09-30T14:00:31;8.85;;;2.15;;
42912;SDS011;50720;54.324;18.558;2023-09-30T14:03:18;9.60;;;2.95;;
42912;SDS011;50720;54.324;18.558;2023-09-30T14:06:09;9.27;;;2.00;;
42912;SDS011;50720;54.324;18.558;2023-09-30T14:08:57;9.13;;;1.80;;
42912;SDS011;50720;54.324;18.558;2023-09-30T14:11:45;9.32;;;2.40;;
42912;SDS011;50720;54.324;18.558;2023-09-30T14:14:32;11.00;;;3.13;;
42912;SDS011;50720;54.324;18.558;2023-09-30T14:17:21;8.05;;;1.95;;
42912;SDS011;50720;54.324;18.558;2023-09-30T14:20:09;10.63;;;2.35;;
42912;SDS011;50720;54.324;18.558;2023-09-30T14:22:56;8.13;;;2.60;;
42912;SDS011;50720;54.324;18.558;2023-09-30T14:25:53;11.30;;;1.90;;
42912;SDS011;50720;54.324;18.558;2023-09-30T14:28:40;15.82;;;2.55;;
42912;SDS011;50720;54.324;18.558;2023-09-30T14:31:28;10.27;;;2.63;;
42912;SDS011;50720;54.324;18.558;2023-09-30T14:34:16;13.90;;;3.35;;
42912;SDS011;50720;54.324;18.558;2023-09-30T14:37:03;6.72;;;3.00;;
42912;SDS011;50720;54.324;18.558;2023-09-30T14:39:50;9.68;;;2.33;;
42912;SDS011;50720;54.324;18.558;2023-09-30T14:42:37;11.93;;;2.25;;
42912;SDS011;50720;54.324;18.558;2023-09-30T14:45:26;8.55;;;2.42;;
42912;SDS011;50720;54.324;18.558;2023-09-30T14:48:13;8.98;;;2.67;;
42912;SDS011;50720;54.324;18.558;2023-09-30T14:51:01;8.43;;;2.10;;
42912;SDS011;50720;54.324;18.558;2023-09-30T14:53:49;6.32;;;2.70;;
42912;SDS011;50720;54.324;18.558;2023-09-30T14:56:36;9.98;;;2.72;;
42912;SDS011;50720;54.324;18.558;2023-09-30T14:59:23;10.32;;;2.65;;
42912;SDS011;50720;54.324;18.558;2023-09-30T15:02:10;9.85;;;2.17;;
42912;SDS011;50720;54.324;18.558;2023-09-30T15:04:57;7.88;;;2.47;;
42912;SDS011;50720;54.324;18.558;2023-09-30T15:07:45;9.13;;;2.78;;
42912;SDS011;50720;54.324;18.558;2023-09-30T15:10:34;12.52;;;2.58;;
42912;SDS011;50720;54.324;18.558;2023-09-30T15:13:21;14.63;;;3.38;;
42912;SDS011;50720;54.324;18.558;2023-09-30T15:16:14;13.95;;;2.80;;
42912;SDS011;50720;54.324;18.558;2023-09-30T15:19:02;14.25;;;2.75;;
42912;SDS011;50720;54.324;18.558;2023-09-30T15:21:49;12.60;;;2.97;;
42912;SDS011;50720;54.324;18.558;2023-09-30T15:24:38;14.23;;;2.95;;
42912;SDS011;50720;54.324;18.558;2023-09-30T15:27:25;9.23;;;2.88;;
42912;SDS011;50720;54.324;18.558;2023-09-30T15:30:12;13.10;;;2.92;;
42912;SDS011;50720;54.324;18.558;2023-09-30T15:32:59;13.00;;;2.63;;
42912;SDS011;50720;54.324;18.558;2023-09-30T15:35:47;15.75;;;2.78;;
42912;SDS011;50720;54.324;18.558;2023-09-30T15:38:34;8.10;;;2.00;;
42912;SDS011;50720;54.324;18.558;2023-09-30T15:41:23;8.63;;;2.00;;
42912;SDS011;50720;54.324;18.558;2023-09-30T15:44:11;9.95;;;2.72;;
42912;SDS011;50720;54.324;18.558;2023-09-30T15:46:58;13.05;;;2.78;;
42912;SDS011;50720;54.324;18.558;2023-09-30T15:49:45;8.38;;;2.47;;
42912;SDS011;50720;54.324;18.558;2023-09-30T15:52:32;9.98;;;3.13;;
42912;SDS011;50720;54.324;18.558;2023-09-30T15:55:20;12.45;;;3.55;;
42912;SDS011;50720;54.324;18.558;2023-09-30T15:58:08;13.02;;;3.25;;
42912;SDS011;50720;54.324;18.558;2023-09-30T16:00:56;13.80;;;3.17;;
42912;SDS011;50720;54.324;18.558;2023-09-30T16:03:42;10.23;;;3.50;;
42912;SDS011;50720;54.324;18.558;2023-09-30T16:06:30;9.02;;;2.70;;
42912;SDS011;50720;54.324;18.558;2023-09-30T16:09:17;10.50;;;2.90;;
42912;SDS011;50720;54.324;18.558;2023-09-30T16:12:04;12.30;;;3.22;;
42912;SDS011;50720;54.324;18.558;2023-09-30T16:14:53;13.43;;;2.95;;
42912;SDS011;50720;54.324;18.558;2023-09-30T16:17:40;11.32;;;3.22;;
42912;SDS011;50720;54.324;18.558;2023-09-30T16:20:27;11.93;;;2.85;;
42912;SDS011;50720;54.324;18.558;2023-09-30T16:23:14;10.27;;;3.22;;
42912;SDS011;50720;54.324;18.558;2023-09-30T16:26:01;9.85;;;3.08;;
42912;SDS011;50720;54.324;18.558;2023-09-30T16:28:49;11.88;;;3.20;;
42912;SDS011;50720;54.324;18.558;2023-09-30T16:31:37;10.15;;;2.80;;
42912;SDS011;50720;54.324;18.558;2023-09-30T16:34:25;10.27;;;2.30;;
42912;SDS011;50720;54.324;18.558;2023-09-30T16:37:12;8.25;;;2.58;;